Chester Springs, PA (19425)

9:30 PM EST on November 22, 2014 (GMT -0500)
Chester Springs | Change Station
CLOSE
Current Station
Personal Weather Station
Location: Chester Springs, PA
Elevation: 472 ft
Nearby Weather Stations

Elev 472 ft 40.08 °N, 75.60 °W | Updated 9 minutes ago

Overcast
Overcast
39.5 °F
Feels Like 24 °F
N
61.0
Wind Variable Wind from SSE
Gusts 61.0 mph

Today
High -- | Low -- °F
--% Chance of Precip.
Yesterday
High -- | Low -- °F
Precip. -- in
6:55 AM 4:41 PM
New Moon, 0% visible
Pressure 30.25 in
Visibility 10.0 miles
Clouds Few 8500 ft
Overcast 11000 ft
Windchill 24 °F
Dew Point 23 °F
Humidity 52%
Rainfall 0.00 in
Snow Depth Not available.
UV 0 out of 12
Pollen .10 out of 12
Air Quality Not available.
Flu Activity Not available.
METAR KPTW 230154Z AUTO 18003KT 10SM FEW085 OVC110 04/M07 A3025 RMK AO2 SLP244 T00441067

More Conditions Fewer Conditions

Pressure 30.25 in
Visibility 10.0 miles
Clouds Few 8500 ft
Overcast 11000 ft
Windchill 24 °F
Dew Point 23 °F
Humidity 52%
Rainfall 0.00 in
Snow Depth Not available.
UV 0 out of 12
Pollen .10 out of 12
Air Quality Not available.
Flu Activity Not available.
METAR KPTW 230154Z AUTO 18003KT 10SM FEW085 OVC110 04/M07 A3025 RMK AO2 SLP244 T00441067

More Conditions Fewer Conditions

10-Day Weather Forecast

Almanac

Astronomy

Nov. 22, 2014 Rise Set
Actual Time
Civil Twilight
Nautical Twilight
Astronomical Twilight
Moon
Length of Visible Light
Length of Day
Tomorrow will be .
, % of the Moon is Illuminated

Today's Extremes

State Highs State Lows

Community

WunderPhotos

Upload Photos

1,772,973 photos uploaded!

WunderBlogs® & News

Nearby

Air Quality

  Air Quality AQ Index Pollutant
Not available.

Snow Depth

Station Depth Elevation

Earthquake Activity

City Distance Mag. Time & Date
Minimum magnitude displayed is 2.5.

Coastal Water Temperatures

Place Temperature

Nearby Weather Stations